sensor_id;sensor_type;location;lat;lon;timestamp;P1;durP1;ratioP1;P2;durP2;ratioP2
31081;SDS011;17737;52.586;13.284;2023-03-01T00:01:46;2.63;;;1.35;;
31081;SDS011;17737;52.586;13.284;2023-03-01T00:04:14;3.70;;;1.70;;
31081;SDS011;17737;52.586;13.284;2023-03-01T00:06:42;2.42;;;1.30;;
31081;SDS011;17737;52.586;13.284;2023-03-01T00:09:12;2.35;;;1.50;;
31081;SDS011;17737;52.586;13.284;2023-03-01T00:11:42;2.07;;;1.60;;
31081;SDS011;17737;52.586;13.284;2023-03-01T00:14:10;1.85;;;1.30;;
31081;SDS011;17737;52.586;13.284;2023-03-01T00:16:39;1.60;;;1.40;;
31081;SDS011;17737;52.586;13.284;2023-03-01T00:19:11;2.55;;;1.77;;
31081;SDS011;17737;52.586;13.284;2023-03-01T00:21:42;2.15;;;1.45;;
31081;SDS011;17737;52.586;13.284;2023-03-01T00:24:10;0.85;;;0.85;;
31081;SDS011;17737;52.586;13.284;2023-03-01T00:26:38;1.77;;;1.25;;
31081;SDS011;17737;52.586;13.284;2023-03-01T00:29:08;2.13;;;1.77;;
31081;SDS011;17737;52.586;13.284;2023-03-01T00:31:36;1.80;;;1.38;;
31081;SDS011;17737;52.586;13.284;2023-03-01T00:34:04;2.25;;;1.50;;
31081;SDS011;17737;52.586;13.284;2023-03-01T00:36:34;2.45;;;1.80;;
31081;SDS011;17737;52.586;13.284;2023-03-01T00:39:04;1.83;;;1.45;;
31081;SDS011;17737;52.586;13.284;2023-03-01T00:41:38;1.63;;;1.20;;
31081;SDS011;17737;52.586;13.284;2023-03-01T00:44:08;1.85;;;1.45;;
31081;SDS011;17737;52.586;13.284;2023-03-01T00:46:38;1.77;;;1.30;;
31081;SDS011;17737;52.586;13.284;2023-03-01T00:49:06;1.67;;;1.20;;
31081;SDS011;17737;52.586;13.284;2023-03-01T00:51:34;3.80;;;1.30;;
31081;SDS011;17737;52.586;13.284;2023-03-01T00:54:02;1.70;;;1.08;;
31081;SDS011;17737;52.586;13.284;2023-03-01T00:56:30;2.45;;;1.52;;
31081;SDS011;17737;52.586;13.284;2023-03-01T00:58:59;2.07;;;1.60;;
31081;SDS011;17737;52.586;13.284;2023-03-01T01:01:29;1.85;;;1.38;;
31081;SDS011;17737;52.586;13.284;2023-03-01T01:03:59;1.95;;;1.50;;
31081;SDS011;17737;52.586;13.284;2023-03-01T01:06:31;2.58;;;1.63;;
31081;SDS011;17737;52.586;13.284;2023-03-01T01:09:02;2.42;;;1.67;;
31081;SDS011;17737;52.586;13.284;2023-03-01T01:11:32;1.88;;;1.52;;
31081;SDS011;17737;52.586;13.284;2023-03-01T01:14:02;1.52;;;1.20;;
31081;SDS011;17737;52.586;13.284;2023-03-01T01:16:32;1.88;;;1.35;;
31081;SDS011;17737;52.586;13.284;2023-03-01T01:19:00;1.65;;;1.42;;
31081;SDS011;17737;52.586;13.284;2023-03-01T01:21:28;1.77;;;1.20;;
31081;SDS011;17737;52.586;13.284;2023-03-01T01:23:57;1.50;;;1.30;;
31081;SDS011;17737;52.586;13.284;2023-03-01T01:26:27;2.25;;;1.30;;
31081;SDS011;17737;52.586;13.284;2023-03-01T01:28:58;1.98;;;1.48;;
31081;SDS011;17737;52.586;13.284;2023-03-01T01:31:27;1.42;;;0.98;;
31081;SDS011;17737;52.586;13.284;2023-03-01T01:33:58;1.75;;;1.55;;
31081;SDS011;17737;52.586;13.284;2023-03-01T01:36:27;1.27;;;1.15;;
31081;SDS011;17737;52.586;13.284;2023-03-01T01:38:56;1.67;;;1.30;;
31081;SDS011;17737;52.586;13.284;2023-03-01T01:41:25;1.63;;;1.30;;
31081;SDS011;17737;52.586;13.284;2023-03-01T01:44:12;1.67;;;1.20;;
31081;SDS011;17737;52.586;13.284;2023-03-01T01:46:44;1.67;;;1.05;;
31081;SDS011;17737;52.586;13.284;2023-03-01T01:49:21;1.30;;;1.20;;
31081;SDS011;17737;52.586;13.284;2023-03-01T01:52:00;2.13;;;1.50;;
31081;SDS011;17737;52.586;13.284;2023-03-01T01:54:38;1.35;;;1.25;;
31081;SDS011;17737;52.586;13.284;2023-03-01T01:57:14;1.90;;;1.30;;
31081;SDS011;17737;52.586;13.284;2023-03-01T01:59:50;1.55;;;1.10;;
31081;SDS011;17737;52.586;13.284;2023-03-01T02:02:21;1.88;;;1.23;;
31081;SDS011;17737;52.586;13.284;2023-03-01T02:04:52;1.37;;;1.20;;
31081;SDS011;17737;52.586;13.284;2023-03-01T02:07:30;2.03;;;1.58;;
31081;SDS011;17737;52.586;13.284;2023-03-01T02:09:59;2.03;;;1.27;;
31081;SDS011;17737;52.586;13.284;2023-03-01T02:12:28;1.08;;;0.90;;
31081;SDS011;17737;52.586;13.284;2023-03-01T02:14:57;1.90;;;1.25;;
31081;SDS011;17737;52.586;13.284;2023-03-01T02:17:25;2.20;;;1.40;;
31081;SDS011;17737;52.586;13.284;2023-03-01T02:19:58;1.73;;;1.42;;
31081;SDS011;17737;52.586;13.284;2023-03-01T02:22:43;1.42;;;1.20;;
31081;SDS011;17737;52.586;13.284;2023-03-01T02:25:21;1.70;;;1.30;;
31081;SDS011;17737;52.586;13.284;2023-03-01T02:27:59;1.88;;;1.33;;
31081;SDS011;17737;52.586;13.284;2023-03-01T02:30:40;1.92;;;1.40;;
31081;SDS011;17737;52.586;13.284;2023-03-01T02:33:25;1.73;;;1.10;;
31081;SDS011;17737;52.586;13.284;2023-03-01T02:35:54;2.17;;;1.63;;
31081;SDS011;17737;52.586;13.284;2023-03-01T02:38:23;2.30;;;1.58;;
31081;SDS011;17737;52.586;13.284;2023-03-01T02:40:52;2.20;;;1.63;;
31081;SDS011;17737;52.586;13.284;2023-03-01T02:43:24;2.45;;;1.65;;
31081;SDS011;17737;52.586;13.284;2023-03-01T02:46:02;3.08;;;1.23;;
31081;SDS011;17737;52.586;13.284;2023-03-01T02:48:39;1.60;;;1.30;;
31081;SDS011;17737;52.586;13.284;2023-03-01T02:51:11;2.17;;;1.40;;
31081;SDS011;17737;52.586;13.284;2023-03-01T02:54:09;2.38;;;1.73;;
31081;SDS011;17737;52.586;13.284;2023-03-01T02:56:48;2.05;;;1.40;;
31081;SDS011;17737;52.586;13.284;2023-03-01T02:59:18;2.20;;;1.63;;
31081;SDS011;17737;52.586;13.284;2023-03-01T03:01:50;3.17;;;1.55;;
31081;SDS011;17737;52.586;13.284;2023-03-01T03:04:18;2.45;;;1.65;;
31081;SDS011;17737;52.586;13.284;2023-03-01T03:06:48;1.92;;;1.42;;
31081;SDS011;17737;52.586;13.284;2023-03-01T03:09:18;1.58;;;1.30;;
31081;SDS011;17737;52.586;13.284;2023-03-01T03:11:46;1.93;;;1.10;;
31081;SDS011;17737;52.586;13.284;2023-03-01T03:14:15;1.67;;;1.10;;
31081;SDS011;17737;52.586;13.284;2023-03-01T03:19:16;2.00;;;1.60;;
31081;SDS011;17737;52.586;13.284;2023-03-01T03:21:45;1.48;;;1.10;;
31081;SDS011;17737;52.586;13.284;2023-03-01T03:24:13;1.53;;;1.37;;
31081;SDS011;17737;52.586;13.284;2023-03-01T03:26:41;1.73;;;1.20;;
31081;SDS011;17737;52.586;13.284;2023-03-01T03:29:09;1.92;;;1.30;;
31081;SDS011;17737;52.586;13.284;2023-03-01T03:31:37;1.92;;;1.50;;
31081;SDS011;17737;52.586;13.284;2023-03-01T03:34:05;1.63;;;1.27;;
31081;SDS011;17737;52.586;13.284;2023-03-01T03:36:34;2.50;;;1.40;;
31081;SDS011;17737;52.586;13.284;2023-03-01T03:41:34;1.88;;;1.40;;
31081;SDS011;17737;52.586;13.284;2023-03-01T03:44:02;1.48;;;1.17;;
31081;SDS011;17737;52.586;13.284;2023-03-01T03:46:30;1.27;;;1.10;;
31081;SDS011;17737;52.586;13.284;2023-03-01T03:48:59;2.40;;;1.65;;
31081;SDS011;17737;52.586;13.284;2023-03-01T03:51:27;1.98;;;1.30;;
31081;SDS011;17737;52.586;13.284;2023-03-01T03:53:56;1.98;;;1.10;;
31081;SDS011;17737;52.586;13.284;2023-03-01T03:56:24;2.05;;;1.40;;
31081;SDS011;17737;52.586;13.284;2023-03-01T03:58:54;1.83;;;1.30;;
31081;SDS011;17737;52.586;13.284;2023-03-01T04:01:22;1.70;;;1.40;;
31081;SDS011;17737;52.586;13.284;2023-03-01T04:03:50;1.50;;;1.30;;
31081;SDS011;17737;52.586;13.284;2023-03-01T04:06:20;1.30;;;1.10;;
31081;SDS011;17737;52.586;13.284;2023-03-01T04:08:48;1.37;;;1.17;;
31081;SDS011;17737;52.586;13.284;2023-03-01T04:11:18;2.42;;;1.58;;
31081;SDS011;17737;52.586;13.284;2023-03-01T04:13:56;2.17;;;1.38;;
31081;SDS011;17737;52.586;13.284;2023-03-01T04:16:26;1.80;;;1.35;;
31081;SDS011;17737;52.586;13.284;2023-03-01T04:18:55;1.75;;;1.38;;
31081;SDS011;17737;52.586;13.284;2023-03-01T04:21:25;2.05;;;1.65;;
31081;SDS011;17737;52.586;13.284;2023-03-01T04:23:53;3.33;;;1.33;;
31081;SDS011;17737;52.586;13.284;2023-03-01T04:26:23;1.67;;;1.20;;
31081;SDS011;17737;52.586;13.284;2023-03-01T04:28:50;1.98;;;1.50;;
31081;SDS011;17737;52.586;13.284;2023-03-01T04:31:18;1.85;;;1.30;;
31081;SDS011;17737;52.586;13.284;2023-03-01T04:33:49;1.50;;;1.20;;
31081;SDS011;17737;52.586;13.284;2023-03-01T04:36:19;2.33;;;1.75;;
31081;SDS011;17737;52.586;13.284;2023-03-01T04:38:49;2.05;;;1.40;;
31081;SDS011;17737;52.586;13.284;2023-03-01T04:41:19;2.38;;;1.65;;
31081;SDS011;17737;52.586;13.284;2023-03-01T04:43:50;2.33;;;1.38;;
31081;SDS011;17737;52.586;13.284;2023-03-01T04:46:19;1.83;;;1.42;;
31081;SDS011;17737;52.586;13.284;2023-03-01T04:48:49;1.45;;;1.10;;
31081;SDS011;17737;52.586;13.284;2023-03-01T04:51:17;1.90;;;1.33;;
31081;SDS011;17737;52.586;13.284;2023-03-01T04:53:44;1.50;;;1.00;;
31081;SDS011;17737;52.586;13.284;2023-03-01T04:56:13;2.00;;;1.20;;
31081;SDS011;17737;52.586;13.284;2023-03-01T04:58:42;1.45;;;1.35;;
31081;SDS011;17737;52.586;13.284;2023-03-01T05:01:12;2.88;;;1.98;;
31081;SDS011;17737;52.586;13.284;2023-03-01T05:03:43;2.92;;;1.95;;
31081;SDS011;17737;52.586;13.284;2023-03-01T05:06:13;3.72;;;2.30;;
31081;SDS011;17737;52.586;13.284;2023-03-01T05:08:43;3.15;;;1.80;;
31081;SDS011;17737;52.586;13.284;2023-03-01T05:11:11;2.20;;;1.70;;
31081;SDS011;17737;52.586;13.284;2023-03-01T05:13:40;2.88;;;2.00;;
31081;SDS011;17737;52.586;13.284;2023-03-01T05:16:08;1.65;;;1.13;;
31081;SDS011;17737;52.586;13.284;2023-03-01T05:18:40;2.25;;;1.40;;
31081;SDS011;17737;52.586;13.284;2023-03-01T05:21:09;1.70;;;1.15;;
31081;SDS011;17737;52.586;13.284;2023-03-01T05:23:42;2.10;;;1.60;;
31081;SDS011;17737;52.586;13.284;2023-03-01T05:26:11;1.98;;;1.40;;
31081;SDS011;17737;52.586;13.284;2023-03-01T05:28:53;1.90;;;1.33;;
31081;SDS011;17737;52.586;13.284;2023-03-01T05:31:25;2.17;;;1.35;;
31081;SDS011;17737;52.586;13.284;2023-03-01T05:33:54;1.80;;;1.23;;
31081;SDS011;17737;52.586;13.284;2023-03-01T05:38:50;1.38;;;1.27;;
31081;SDS011;17737;52.586;13.284;2023-03-01T05:41:18;1.88;;;1.27;;
31081;SDS011;17737;52.586;13.284;2023-03-01T05:43:46;2.30;;;1.20;;
31081;SDS011;17737;52.586;13.284;2023-03-01T05:46:14;1.77;;;1.10;;
31081;SDS011;17737;52.586;13.284;2023-03-01T05:48:42;2.75;;;1.70;;
31081;SDS011;17737;52.586;13.284;2023-03-01T05:51:11;1.38;;;1.20;;
31081;SDS011;17737;52.586;13.284;2023-03-01T05:56:07;1.52;;;1.17;;
31081;SDS011;17737;52.586;13.284;2023-03-01T05:58:35;1.85;;;1.33;;
31081;SDS011;17737;52.586;13.284;2023-03-01T06:01:04;2.38;;;1.73;;
31081;SDS011;17737;52.586;13.284;2023-03-01T06:03:32;1.70;;;1.35;;
31081;SDS011;17737;52.586;13.284;2023-03-01T06:06:00;1.38;;;1.20;;
31081;SDS011;17737;52.586;13.284;2023-03-01T06:08:30;2.13;;;1.52;;
31081;SDS011;17737;52.586;13.284;2023-03-01T06:10:57;2.88;;;2.00;;
31081;SDS011;17737;52.586;13.284;2023-03-01T06:13:25;5.18;;;1.80;;
31081;SDS011;17737;52.586;13.284;2023-03-01T06:15:53;1.73;;;1.48;;
31081;SDS011;17737;52.586;13.284;2023-03-01T06:18:21;1.70;;;1.30;;
31081;SDS011;17737;52.586;13.284;2023-03-01T06:20:52;2.00;;;1.35;;
31081;SDS011;17737;52.586;13.284;2023-03-01T06:23:21;2.08;;;1.50;;
31081;SDS011;17737;52.586;13.284;2023-03-01T06:25:50;1.90;;;1.40;;
31081;SDS011;17737;52.586;13.284;2023-03-01T06:30:46;2.45;;;1.80;;
31081;SDS011;17737;52.586;13.284;2023-03-01T06:33:16;1.77;;;1.42;;
31081;SDS011;17737;52.586;13.284;2023-03-01T06:35:46;2.60;;;1.80;;
31081;SDS011;17737;52.586;13.284;2023-03-01T06:38:14;1.85;;;1.33;;
31081;SDS011;17737;52.586;13.284;2023-03-01T06:40:44;1.98;;;1.58;;
31081;SDS011;17737;52.586;13.284;2023-03-01T06:43:19;1.98;;;1.30;;
31081;SDS011;17737;52.586;13.284;2023-03-01T06:48:15;1.98;;;1.40;;
31081;SDS011;17737;52.586;13.284;2023-03-01T06:50:43;2.22;;;1.35;;
31081;SDS011;17737;52.586;13.284;2023-03-01T06:53:11;1.90;;;1.65;;
31081;SDS011;17737;52.586;13.284;2023-03-01T06:55:39;1.80;;;1.35;;
31081;SDS011;17737;52.586;13.284;2023-03-01T06:58:08;2.08;;;1.67;;
31081;SDS011;17737;52.586;13.284;2023-03-01T07:00:38;1.27;;;1.10;;
31081;SDS011;17737;52.586;13.284;2023-03-01T07:03:07;1.88;;;1.25;;
31081;SDS011;17737;52.586;13.284;2023-03-01T07:05:35;1.90;;;1.27;;
31081;SDS011;17737;52.586;13.284;2023-03-01T07:08:04;2.20;;;1.38;;
31081;SDS011;17737;52.586;13.284;2023-03-01T07:10:32;2.08;;;1.52;;
31081;SDS011;17737;52.586;13.284;2023-03-01T07:13:00;2.42;;;1.60;;
31081;SDS011;17737;52.586;13.284;2023-03-01T07:15:28;1.67;;;1.35;;
31081;SDS011;17737;52.586;13.284;2023-03-01T07:17:57;3.40;;;1.63;;
31081;SDS011;17737;52.586;13.284;2023-03-01T07:22:54;1.70;;;1.08;;
31081;SDS011;17737;52.586;13.284;2023-03-01T07:25:24;1.35;;;1.05;;
31081;SDS011;17737;52.586;13.284;2023-03-01T07:27:53;2.80;;;1.80;;
31081;SDS011;17737;52.586;13.284;2023-03-01T07:30:21;2.20;;;1.40;;
31081;SDS011;17737;52.586;13.284;2023-03-01T07:32:52;2.20;;;1.30;;
31081;SDS011;17737;52.586;13.284;2023-03-01T07:35:22;4.13;;;1.35;;
31081;SDS011;17737;52.586;13.284;2023-03-01T07:37:52;2.00;;;1.60;;
31081;SDS011;17737;52.586;13.284;2023-03-01T07:40:21;3.57;;;1.37;;
31081;SDS011;17737;52.586;13.284;2023-03-01T07:42:49;2.88;;;1.63;;
31081;SDS011;17737;52.586;13.284;2023-03-01T07:45:22;1.70;;;1.27;;
31081;SDS011;17737;52.586;13.284;2023-03-01T07:47:51;1.65;;;1.02;;
31081;SDS011;17737;52.586;13.284;2023-03-01T07:50:20;1.95;;;1.38;;
31081;SDS011;17737;52.586;13.284;2023-03-01T07:52:50;1.65;;;1.20;;
31081;SDS011;17737;52.586;13.284;2023-03-01T07:55:18;1.65;;;1.15;;
31081;SDS011;17737;52.586;13.284;2023-03-01T07:57:46;1.92;;;1.20;;
31081;SDS011;17737;52.586;13.284;2023-03-01T08:00:14;1.80;;;1.30;;
31081;SDS011;17737;52.586;13.284;2023-03-01T08:02:43;1.83;;;1.33;;
31081;SDS011;17737;52.586;13.284;2023-03-01T08:05:11;1.83;;;1.23;;
31081;SDS011;17737;52.586;13.284;2023-03-01T08:07:40;1.48;;;1.02;;
31081;SDS011;17737;52.586;13.284;2023-03-01T08:10:09;1.48;;;1.30;;
31081;SDS011;17737;52.586;13.284;2023-03-01T08:12:38;1.60;;;1.30;;
31081;SDS011;17737;52.586;13.284;2023-03-01T08:15:06;1.00;;;0.90;;
31081;SDS011;17737;52.586;13.284;2023-03-01T08:17:36;1.23;;;0.85;;
31081;SDS011;17737;52.586;13.284;2023-03-01T08:20:04;1.75;;;0.95;;
31081;SDS011;17737;52.586;13.284;2023-03-01T08:22:33;1.25;;;0.90;;
31081;SDS011;17737;52.586;13.284;2023-03-01T08:25:03;1.10;;;0.75;;
31081;SDS011;17737;52.586;13.284;2023-03-01T08:27:32;1.25;;;1.05;;
31081;SDS011;17737;52.586;13.284;2023-03-01T08:30:00;1.33;;;1.08;;
31081;SDS011;17737;52.586;13.284;2023-03-01T08:32:28;1.20;;;1.10;;
31081;SDS011;17737;52.586;13.284;2023-03-01T08:34:56;1.65;;;1.00;;
31081;SDS011;17737;52.586;13.284;2023-03-01T08:37:24;0.98;;;0.80;;
31081;SDS011;17737;52.586;13.284;2023-03-01T08:39:52;1.20;;;1.00;;
31081;SDS011;17737;52.586;13.284;2023-03-01T08:42:22;0.82;;;0.80;;
31081;SDS011;17737;52.586;13.284;2023-03-01T08:44:50;1.35;;;1.00;;
31081;SDS011;17737;52.586;13.284;2023-03-01T08:47:18;0.95;;;0.82;;
31081;SDS011;17737;52.586;13.284;2023-03-01T08:49:46;1.10;;;0.98;;
31081;SDS011;17737;52.586;13.284;2023-03-01T08:52:14;0.85;;;0.68;;
31081;SDS011;17737;52.586;13.284;2023-03-01T08:54:42;1.27;;;1.00;;
31081;SDS011;17737;52.586;13.284;2023-03-01T08:57:09;0.90;;;0.85;;
31081;SDS011;17737;52.586;13.284;2023-03-01T08:59:40;0.70;;;0.70;;
31081;SDS011;17737;52.586;13.284;2023-03-01T09:02:10;0.93;;;0.82;;
31081;SDS011;17737;52.586;13.284;2023-03-01T09:04:41;0.90;;;0.75;;
31081;SDS011;17737;52.586;13.284;2023-03-01T09:07:09;0.68;;;0.68;;
31081;SDS011;17737;52.586;13.284;2023-03-01T09:09:38;0.57;;;0.50;;
31081;SDS011;17737;52.586;13.284;2023-03-01T09:12:06;0.80;;;0.65;;
31081;SDS011;17737;52.586;13.284;2023-03-01T09:14:34;0.80;;;0.80;;
31081;SDS011;17737;52.586;13.284;2023-03-01T09:17:05;0.90;;;0.90;;
31081;SDS011;17737;52.586;13.284;2023-03-01T09:19:35;1.10;;;1.00;;
31081;SDS011;17737;52.586;13.284;2023-03-01T09:22:04;0.70;;;0.70;;
31081;SDS011;17737;52.586;13.284;2023-03-01T09:24:32;0.85;;;0.73;;
31081;SDS011;17737;52.586;13.284;2023-03-01T09:27:00;1.02;;;0.80;;
31081;SDS011;17737;52.586;13.284;2023-03-01T09:29:29;0.75;;;0.75;;
31081;SDS011;17737;52.586;13.284;2023-03-01T09:31:57;0.77;;;0.75;;
31081;SDS011;17737;52.586;13.284;2023-03-01T09:34:27;0.90;;;0.90;;
31081;SDS011;17737;52.586;13.284;2023-03-01T09:36:54;0.80;;;0.80;;
31081;SDS011;17737;52.586;13.284;2023-03-01T09:39:28;0.70;;;0.70;;
31081;SDS011;17737;52.586;13.284;2023-03-01T09:42:00;0.70;;;0.70;;
31081;SDS011;17737;52.586;13.284;2023-03-01T09:44:32;0.75;;;0.60;;
31081;SDS011;17737;52.586;13.284;2023-03-01T09:47:09;0.90;;;0.73;;
31081;SDS011;17737;52.586;13.284;2023-03-01T09:49:48;0.63;;;0.63;;
31081;SDS011;17737;52.586;13.284;2023-03-01T09:52:30;0.75;;;0.75;;
31081;SDS011;17737;52.586;13.284;2023-03-01T09:55:11;0.95;;;0.77;;
31081;SDS011;17737;52.586;13.284;2023-03-01T09:57:45;0.80;;;0.80;;
31081;SDS011;17737;52.586;13.284;2023-03-01T10:00:26;0.60;;;0.60;;
31081;SDS011;17737;52.586;13.284;2023-03-01T10:03:08;1.20;;;0.70;;
31081;SDS011;17737;52.586;13.284;2023-03-01T10:05:52;0.57;;;0.57;;
31081;SDS011;17737;52.586;13.284;2023-03-01T10:08:30;0.85;;;0.70;;
31081;SDS011;17737;52.586;13.284;2023-03-01T10:11:16;0.65;;;0.60;;
31081;SDS011;17737;52.586;13.284;2023-03-01T10:13:52;0.50;;;0.50;;
31081;SDS011;17737;52.586;13.284;2023-03-01T10:16:31;0.75;;;0.52;;
31081;SDS011;17737;52.586;13.284;2023-03-01T10:19:11;0.50;;;0.50;;
31081;SDS011;17737;52.586;13.284;2023-03-01T10:21:49;0.40;;;0.40;;
31081;SDS011;17737;52.586;13.284;2023-03-01T10:24:19;0.82;;;0.50;;
31081;SDS011;17737;52.586;13.284;2023-03-01T10:26:54;0.57;;;0.50;;
31081;SDS011;17737;52.586;13.284;2023-03-01T10:29:26;0.60;;;0.50;;
31081;SDS011;17737;52.586;13.284;2023-03-01T10:34:34;0.32;;;0.32;;
31081;SDS011;17737;52.586;13.284;2023-03-01T10:37:10;0.68;;;0.60;;
31081;SDS011;17737;52.586;13.284;2023-03-01T10:39:56;0.30;;;0.30;;
31081;SDS011;17737;52.586;13.284;2023-03-01T10:42:31;0.50;;;0.50;;
31081;SDS011;17737;52.586;13.284;2023-03-01T10:45:15;0.70;;;0.60;;
31081;SDS011;17737;52.586;13.284;2023-03-01T10:48:03;0.60;;;0.50;;
31081;SDS011;17737;52.586;13.284;2023-03-01T10:50:38;0.43;;;0.43;;
31081;SDS011;17737;52.586;13.284;2023-03-01T10:53:20;0.43;;;0.43;;
31081;SDS011;17737;52.586;13.284;2023-03-01T10:55:59;0.50;;;0.50;;
31081;SDS011;17737;52.586;13.284;2023-03-01T10:58:33;0.60;;;0.60;;
31081;SDS011;17737;52.586;13.284;2023-03-01T11:01:04;0.50;;;0.50;;
31081;SDS011;17737;52.586;13.284;2023-03-01T11:04:03;0.50;;;0.50;;
31081;SDS011;17737;52.586;13.284;2023-03-01T11:06:40;0.70;;;0.70;;
31081;SDS011;17737;52.586;13.284;2023-03-01T11:09:18;0.40;;;0.40;;
31081;SDS011;17737;52.586;13.284;2023-03-01T11:11:51;0.50;;;0.50;;
31081;SDS011;17737;52.586;13.284;2023-03-01T11:14:22;0.40;;;0.40;;
31081;SDS011;17737;52.586;13.284;2023-03-01T11:16:59;0.45;;;0.45;;
31081;SDS011;17737;52.586;13.284;2023-03-01T11:19:30;0.50;;;0.50;;
31081;SDS011;17737;52.586;13.284;2023-03-01T11:22:01;0.50;;;0.50;;
31081;SDS011;17737;52.586;13.284;2023-03-01T11:24:43;0.40;;;0.40;;
31081;SDS011;17737;52.586;13.284;2023-03-01T11:27:35;0.60;;;0.60;;
31081;SDS011;17737;52.586;13.284;2023-03-01T11:30:13;0.50;;;0.50;;
31081;SDS011;17737;52.586;13.284;2023-03-01T11:32:50;0.50;;;0.50;;
31081;SDS011;17737;52.586;13.284;2023-03-01T11:35:34;0.35;;;0.35;;
31081;SDS011;17737;52.586;13.284;2023-03-01T11:38:14;0.40;;;0.40;;
31081;SDS011;17737;52.586;13.284;2023-03-01T11:40:51;0.60;;;0.60;;
31081;SDS011;17737;52.586;13.284;2023-03-01T11:43:29;1.27;;;0.60;;
31081;SDS011;17737;52.586;13.284;2023-03-01T11:46:33;0.85;;;0.60;;
31081;SDS011;17737;52.586;13.284;2023-03-01T11:49:20;0.65;;;0.45;;
31081;SDS011;17737;52.586;13.284;2023-03-01T11:52:43;0.52;;;0.52;;
31081;SDS011;17737;52.586;13.284;2023-03-01T11:58:38;0.90;;;0.63;;
31081;SDS011;17737;52.586;13.284;2023-03-01T12:01:49;0.52;;;0.52;;
31081;SDS011;17737;52.586;13.284;2023-03-01T12:04:49;0.45;;;0.45;;
31081;SDS011;17737;52.586;13.284;2023-03-01T12:07:37;0.50;;;0.50;;
31081;SDS011;17737;52.586;13.284;2023-03-01T12:10:21;0.50;;;0.50;;
31081;SDS011;17737;52.586;13.284;2023-03-01T12:16:15;0.50;;;0.50;;
31081;SDS011;17737;52.586;13.284;2023-03-01T12:22:13;0.47;;;0.47;;
31081;SDS011;17737;52.586;13.284;2023-03-01T12:25:03;0.63;;;0.63;;
31081;SDS011;17737;52.586;13.284;2023-03-01T12:27:51;0.40;;;0.40;;
31081;SDS011;17737;52.586;13.284;2023-03-01T12:30:45;0.40;;;0.40;;
31081;SDS011;17737;52.586;13.284;2023-03-01T12:33:55;0.45;;;0.45;;
31081;SDS011;17737;52.586;13.284;2023-03-01T12:36:55;0.52;;;0.52;;
31081;SDS011;17737;52.586;13.284;2023-03-01T12:39:47;0.40;;;0.40;;
31081;SDS011;17737;52.586;13.284;2023-03-01T12:42:40;0.50;;;0.50;;
31081;SDS011;17737;52.586;13.284;2023-03-01T12:45:31;0.55;;;0.50;;
31081;SDS011;17737;52.586;13.284;2023-03-01T12:48:33;0.43;;;0.43;;
31081;SDS011;17737;52.586;13.284;2023-03-01T12:51:14;0.50;;;0.50;;
31081;SDS011;17737;52.586;13.284;2023-03-01T12:53:51;0.60;;;0.60;;
31081;SDS011;17737;52.586;13.284;2023-03-01T12:56:23;0.47;;;0.47;;
31081;SDS011;17737;52.586;13.284;2023-03-01T12:58:58;0.32;;;0.32;;
31081;SDS011;17737;52.586;13.284;2023-03-01T13:01:39;0.40;;;0.40;;
31081;SDS011;17737;52.586;13.284;2023-03-01T13:07:43;0.52;;;0.52;;
31081;SDS011;17737;52.586;13.284;2023-03-01T13:10:24;0.40;;;0.40;;
31081;SDS011;17737;52.586;13.284;2023-03-01T13:13:02;0.30;;;0.30;;
31081;SDS011;17737;52.586;13.284;2023-03-01T13:15:40;0.30;;;0.30;;
31081;SDS011;17737;52.586;13.284;2023-03-01T13:18:29;0.40;;;0.40;;
31081;SDS011;17737;52.586;13.284;2023-03-01T13:21:01;0.55;;;0.50;;
31081;SDS011;17737;52.586;13.284;2023-03-01T13:23:33;0.45;;;0.40;;
31081;SDS011;17737;52.586;13.284;2023-03-01T13:26:05;0.40;;;0.40;;
31081;SDS011;17737;52.586;13.284;2023-03-01T13:28:46;0.47;;;0.47;;
31081;SDS011;17737;52.586;13.284;2023-03-01T13:34:41;0.40;;;0.40;;
31081;SDS011;17737;52.586;13.284;2023-03-01T13:37:19;0.43;;;0.43;;
31081;SDS011;17737;52.586;13.284;2023-03-01T13:40:00;0.50;;;0.50;;
31081;SDS011;17737;52.586;13.284;2023-03-01T13:42:39;0.60;;;0.60;;
31081;SDS011;17737;52.586;13.284;2023-03-01T13:45:27;0.50;;;0.50;;
31081;SDS011;17737;52.586;13.284;2023-03-01T13:48:09;0.60;;;0.60;;
31081;SDS011;17737;52.586;13.284;2023-03-01T13:50:47;0.50;;;0.50;;
31081;SDS011;17737;52.586;13.284;2023-03-01T13:53:22;0.60;;;0.60;;
31081;SDS011;17737;52.586;13.284;2023-03-01T13:55:55;0.50;;;0.50;;
31081;SDS011;17737;52.586;13.284;2023-03-01T13:58:28;0.50;;;0.50;;
31081;SDS011;17737;52.586;13.284;2023-03-01T14:00:59;0.50;;;0.50;;
31081;SDS011;17737;52.586;13.284;2023-03-01T14:03:30;0.50;;;0.50;;
31081;SDS011;17737;52.586;13.284;2023-03-01T14:06:03;0.50;;;0.50;;
31081;SDS011;17737;52.586;13.284;2023-03-01T14:08:46;0.40;;;0.40;;
31081;SDS011;17737;52.586;13.284;2023-03-01T14:11:25;0.40;;;0.40;;
31081;SDS011;17737;52.586;13.284;2023-03-01T14:14:28;0.50;;;0.50;;
31081;SDS011;17737;52.586;13.284;2023-03-01T14:17:11;0.43;;;0.43;;
31081;SDS011;17737;52.586;13.284;2023-03-01T14:20:07;0.45;;;0.45;;
31081;SDS011;17737;52.586;13.284;2023-03-01T14:22:43;0.50;;;0.50;;
31081;SDS011;17737;52.586;13.284;2023-03-01T14:25:18;0.30;;;0.30;;
31081;SDS011;17737;52.586;13.284;2023-03-01T14:27:51;0.40;;;0.40;;
31081;SDS011;17737;52.586;13.284;2023-03-01T14:30:32;0.60;;;0.60;;
31081;SDS011;17737;52.586;13.284;2023-03-01T14:33:16;0.38;;;0.38;;
31081;SDS011;17737;52.586;13.284;2023-03-01T14:35:55;0.38;;;0.38;;
31081;SDS011;17737;52.586;13.284;2023-03-01T14:38:31;0.47;;;0.47;;
31081;SDS011;17737;52.586;13.284;2023-03-01T14:41:02;0.40;;;0.40;;
31081;SDS011;17737;52.586;13.284;2023-03-01T14:43:35;0.63;;;0.63;;
31081;SDS011;17737;52.586;13.284;2023-03-01T14:46:16;0.40;;;0.40;;
31081;SDS011;17737;52.586;13.284;2023-03-01T14:48:48;0.50;;;0.50;;
31081;SDS011;17737;52.586;13.284;2023-03-01T14:51:19;0.50;;;0.50;;
31081;SDS011;17737;52.586;13.284;2023-03-01T14:53:48;0.50;;;0.50;;
31081;SDS011;17737;52.586;13.284;2023-03-01T14:56:18;0.40;;;0.40;;
31081;SDS011;17737;52.586;13.284;2023-03-01T14:58:46;0.60;;;0.60;;
31081;SDS011;17737;52.586;13.284;2023-03-01T15:01:19;0.55;;;0.55;;
31081;SDS011;17737;52.586;13.284;2023-03-01T15:03:48;0.60;;;0.60;;
31081;SDS011;17737;52.586;13.284;2023-03-01T15:06:18;0.60;;;0.60;;
31081;SDS011;17737;52.586;13.284;2023-03-01T15:08:52;0.60;;;0.60;;
31081;SDS011;17737;52.586;13.284;2023-03-01T15:11:23;0.52;;;0.52;;
31081;SDS011;17737;52.586;13.284;2023-03-01T15:13:56;0.50;;;0.50;;
31081;SDS011;17737;52.586;13.284;2023-03-01T15:16:25;0.40;;;0.40;;
31081;SDS011;17737;52.586;13.284;2023-03-01T15:18:57;0.52;;;0.52;;
31081;SDS011;17737;52.586;13.284;2023-03-01T15:21:29;0.40;;;0.40;;
31081;SDS011;17737;52.586;13.284;2023-03-01T15:24:06;0.60;;;0.60;;
31081;SDS011;17737;52.586;13.284;2023-03-01T15:26:49;0.60;;;0.60;;
31081;SDS011;17737;52.586;13.284;2023-03-01T15:29:22;0.40;;;0.40;;
31081;SDS011;17737;52.586;13.284;2023-03-01T15:31:57;0.50;;;0.50;;
31081;SDS011;17737;52.586;13.284;2023-03-01T15:34:30;0.60;;;0.60;;
31081;SDS011;17737;52.586;13.284;2023-03-01T15:37:03;0.60;;;0.60;;
31081;SDS011;17737;52.586;13.284;2023-03-01T15:39:56;0.50;;;0.50;;
31081;SDS011;17737;52.586;13.284;2023-03-01T15:42:37;0.40;;;0.40;;
31081;SDS011;17737;52.586;13.284;2023-03-01T15:45:09;0.50;;;0.50;;
31081;SDS011;17737;52.586;13.284;2023-03-01T15:47:48;0.60;;;0.60;;